Time;durP1;ratioP1;P1;durP2;ratioP2;P2;SDS_P1;SDS_P2;PMS_P1;PMS_P2;Temp;Humidity;BMP_temperature;BMP_pressure;BME280_temperature;BME280_humidity;BME280_pressure;Samples;Min_cycle;Max_cycle;Signal;HPM_P1;HPM_P2
2022/06/19 00:01:14;;;;;;;;;;;;;;;15.91;61.65;101079.97;5050658;28;19922;-34
2022/06/19 00:03:49;;;;;;;;;;;;;;;15.92;62.09;101122.34;5059128;28;19927;-36
2022/06/19 00:06:15;;;;;;;;;;;;;;;15.92;62.05;101163.06;5058160;28;19986;-34
2022/06/19 00:08:40;;;;;;;;;;;;;;;16.00;62.04;101203.56;5062949;28;19921;-37
2022/06/19 00:11:06;;;;;;;;;;;;;;;16.08;61.78;101226.13;5051247;28;19963;-33
2022/06/19 00:13:31;;;;;;;;;;;;;;;16.13;61.29;101251.59;5052323;28;19917;-33
2022/06/19 00:15:57;;;;;;;;;;;;;;;16.10;61.49;101271.03;5067567;28;20047;-32
2022/06/19 00:18:22;;;;;;;;;;;;;;;16.16;61.44;101288.38;5051514;28;19945;-32
2022/06/19 00:20:47;;;;;;;;;;;;;;;16.24;61.40;101271.84;5049704;28;19917;-34
2022/06/19 00:23:13;;;;;;;;;;;;;;;16.34;61.15;101264.13;5052374;28;19992;-34
2022/06/19 00:25:39;;;;;;;;;;;;;;;16.35;60.88;101225.06;5051531;28;19951;-35
2022/06/19 00:28:04;;;;;;;;;;;;;;;16.37;60.54;101179.50;5051398;28;19977;-33
2022/06/19 00:30:30;;;;;;;;;;;;;;;16.31;60.63;101172.22;5051554;28;20231;-35
2022/06/19 00:32:56;;;;;;;;;;;;;;;16.30;60.64;101197.72;5055616;28;19935;-33
2022/06/19 00:35:21;;;;;;;;;;;;;;;16.24;60.95;101201.25;5065137;28;19920;-34
2022/06/19 00:37:46;;;;;;;;;;;;;;;16.23;60.32;101186.84;5069824;28;19956;-33
2022/06/19 00:40:12;;;;;;;;;;;;;;;16.22;60.07;101200.66;5060353;28;20223;-34
2022/06/19 00:42:37;;;;;;;;;;;;;;;16.27;59.51;101217.13;5066079;28;19917;-32
2022/06/19 00:45:03;;;;;;;;;;;;;;;16.26;57.75;101218.19;5053174;28;19932;-33
2022/06/19 00:47:29;;;;;;;;;;;;;;;16.21;57.72;101231.53;5050306;28;19948;-32
2022/06/19 00:50:06;;;;;;;;;;;;;;;16.14;56.67;101230.72;5055508;28;19928;-33
2022/06/19 00:52:38;;;;;;;;;;;;;;;16.16;55.42;101232.16;5052641;28;19988;-34
2022/06/19 00:55:06;;;;;;;;;;;;;;;16.15;54.98;101214.22;5029189;28;19964;-33
2022/06/19 00:57:32;;;;;;;;;;;;;;;16.13;54.69;101199.19;5048063;28;20000;-35
2022/06/19 01:00:04;;;;;;;;;;;;;;;16.06;54.75;101201.91;5060086;28;20012;-34
2022/06/19 01:02:29;;;;;;;;;;;;;;;16.06;54.91;101222.78;5050573;28;19984;-34
2022/06/19 01:04:54;;;;;;;;;;;;;;;16.09;55.33;101216.91;5048981;28;19917;-34
2022/06/19 01:07:21;;;;;;;;;;;;;;;16.09;55.75;101222.34;5061352;28;19986;-36
2022/06/19 01:09:47;;;;;;;;;;;;;;;16.10;56.46;101226.75;5060235;28;19928;-33
2022/06/19 01:12:12;;;;;;;;;;;;;;;16.06;57.60;101212.78;5060887;28;19917;-32
2022/06/19 01:14:38;;;;;;;;;;;;;;;16.09;59.54;101200.63;5056383;28;19925;-32
2022/06/19 01:17:03;;;;;;;;;;;;;;;16.04;61.22;101208.59;5067851;28;19943;-32
2022/06/19 01:19:30;;;;;;;;;;;;;;;16.09;62.05;101195.19;5048955;28;19921;-34
2022/06/19 01:21:58;;;;;;;;;;;;;;;16.10;62.84;101183.31;5032711;28;19917;-33
2022/06/19 01:24:42;;;;;;;;;;;;;;;16.09;63.06;101185.19;5049406;28;19925;-35
2022/06/19 01:27:08;;;;;;;;;;;;;;;16.04;63.21;101165.16;5050667;28;19928;-31
2022/06/19 01:29:34;;;;;;;;;;;;;;;15.97;62.73;101154.28;5050108;28;19915;-34
2022/06/19 01:32:03;;;;;;;;;;;;;;;15.92;62.18;101160.34;5050037;28;19943;-34
2022/06/19 01:34:35;;;;;;;;;;;;;;;15.91;60.81;101172.25;5048549;28;19936;-32
2022/06/19 01:37:03;;;;;;;;;;;;;;;15.87;60.01;101219.84;5063694;28;19984;-34
2022/06/19 01:39:30;;;;;;;;;;;;;;;15.81;58.64;101272.25;5063808;28;19931;-33
2022/06/19 01:41:55;;;;;;;;;;;;;;;15.86;57.89;101307.75;5057235;28;19927;-33
2022/06/19 01:44:20;;;;;;;;;;;;;;;15.85;56.89;101292.53;5051499;28;19921;-34
2022/06/19 01:46:46;;;;;;;;;;;;;;;15.91;57.31;101252.84;5068680;28;19917;-32
2022/06/19 01:49:11;;;;;;;;;;;;;;;15.94;58.16;101192.72;5052249;28;19921;-36
2022/06/19 01:51:36;;;;;;;;;;;;;;;15.97;58.72;101138.84;5065469;28;19924;-32
2022/06/19 01:54:06;;;;;;;;;;;;;;;15.93;59.48;101131.31;5058475;28;19921;-34
2022/06/19 01:56:32;;;;;;;;;;;;;;;15.92;60.16;101163.06;5057627;28;20454;-33
2022/06/19 01:58:57;;;;;;;;;;;;;;;15.89;60.54;101211.50;5054042;28;19921;-33
2022/06/19 02:01:23;;;;;;;;;;;;;;;15.88;60.91;101193.56;5048543;28;19936;-34
2022/06/19 02:03:49;;;;;;;;;;;;;;;15.93;60.72;101185.59;5051037;28;19921;-36
2022/06/19 02:06:16;;;;;;;;;;;;;;;15.89;60.75;101235.94;5049275;28;19917;-33
2022/06/19 02:08:41;;;;;;;;;;;;;;;15.83;61.15;101356.19;5051663;28;19925;-37
2022/06/19 02:11:07;;;;;;;;;;;;;;;15.83;61.60;101443.03;5053548;28;20161;-33
2022/06/19 02:13:34;;;;;;;;;;;;;;;15.83;61.56;101440.34;5064506;28;19920;-34
2022/06/19 02:15:59;;;;;;;;;;;;;;;15.85;60.99;101371.22;5061433;28;19956;-33
2022/06/19 02:18:26;;;;;;;;;;;;;;;15.98;60.26;101212.94;5053190;28;19932;-32
2022/06/19 02:20:52;;;;;;;;;;;;;;;15.78;60.24;101061.00;5053118;28;19921;-35
2022/06/19 02:23:36;;;;;;;;;;;;;;;15.51;60.80;100998.59;5057545;28;19960;-35
2022/06/19 02:26:03;;;;;;;;;;;;;;;15.38;61.14;101036.56;5058762;28;19933;-32
2022/06/19 02:28:28;;;;;;;;;;;;;;;15.29;61.49;101043.22;5055521;28;19921;-31
2022/06/19 02:30:53;;;;;;;;;;;;;;;15.36;62.50;101044.06;5052178;28;19921;-32
2022/06/19 02:33:19;;;;;;;;;;;;;;;15.34;60.09;101003.59;5065858;23;20045;-76
2022/06/19 02:35:45;;;;;;;;;;;;;;;15.29;59.66;100975.44;4999387;28;19964;-76
2022/06/19 02:38:16;;;;;;;;;;;;;;;15.22;59.72;100923.94;5017330;28;19976;-76
2022/06/19 02:40:54;;;;;;;;;;;;;;;15.09;58.36;100922.09;5026490;28;19925;-78
2022/06/19 02:43:21;;;;;;;;;;;;;;;14.98;57.83;100906.47;5033699;28;19961;-77
2022/06/19 02:45:46;;;;;;;;;;;;;;;14.86;59.10;100910.84;5033561;28;19918;-77
2022/06/19 02:48:20;;;;;;;;;;;;;;;14.75;60.20;100868.13;5034191;28;19925;-79
2022/06/19 02:50:45;;;;;;;;;;;;;;;14.58;59.67;100859.56;5030372;28;19935;-77
2022/06/19 02:53:10;;;;;;;;;;;;;;;14.52;61.60;100831.41;5015721;28;19921;-79
2022/06/19 02:55:36;;;;;;;;;;;;;;;14.43;61.16;100843.50;5015225;28;19940;-79
2022/06/19 02:58:01;;;;;;;;;;;;;;;14.38;62.95;100900.13;5014012;28;20312;-77
2022/06/19 03:00:27;;;;;;;;;;;;;;;14.36;62.35;100934.69;5013207;28;19973;-77
2022/06/19 03:02:59;;;;;;;;;;;;;;;14.39;61.90;100977.59;5012725;28;19921;-77
2022/06/19 03:05:25;;;;;;;;;;;;;;;14.42;63.46;101001.56;5012840;28;19956;-77
2022/06/19 03:07:51;;;;;;;;;;;;;;;14.49;61.62;100994.31;5012781;28;19921;-78
2022/06/19 03:10:16;;;;;;;;;;;;;;;14.49;60.75;100978.88;5012959;28;20373;-77
2022/06/19 03:12:42;;;;;;;;;;;;;;;14.51;61.57;100967.88;5013935;28;19922;-77
2022/06/19 03:15:07;;;;;;;;;;;;;;;14.55;61.44;100981.84;5013763;28;20353;-75
2022/06/19 03:17:32;;;;;;;;;;;;;;;14.59;62.39;100967.69;5011132;28;19921;-76
2022/06/19 03:19:58;;;;;;;;;;;;;;;14.63;62.80;100979.78;5013143;28;19927;-77
2022/06/19 03:22:23;;;;;;;;;;;;;;;14.72;62.63;100988.56;5013042;28;19921;-77
2022/06/19 03:24:48;;;;;;;;;;;;;;;14.78;63.23;100986.91;5012675;28;19960;-77
2022/06/19 03:27:14;;;;;;;;;;;;;;;14.80;62.49;101017.34;5012299;28;19953;-77
2022/06/19 03:29:39;;;;;;;;;;;;;;;14.82;62.97;101010.66;5012654;28;19997;-77
2022/06/19 03:32:04;;;;;;;;;;;;;;;14.83;63.78;100992.53;5012802;28;19917;-77
2022/06/19 03:34:30;;;;;;;;;;;;;;;14.80;64.76;100969.41;5010503;28;20387;-76
2022/06/19 03:36:56;;;;;;;;;;;;;;;14.69;65.66;100924.78;5010269;28;20050;-75
2022/06/19 03:39:21;;;;;;;;;;;;;;;14.51;66.92;100919.13;5019335;28;19922;-77
2022/06/19 03:41:46;;;;;;;;;;;;;;;14.39;68.12;100934.28;5023951;28;19930;-77
2022/06/19 03:44:11;;;;;;;;;;;;;;;14.34;70.42;100937.59;5009682;28;19979;-76
2022/06/19 03:46:36;;;;;;;;;;;;;;;14.33;72.90;100916.16;5016582;28;20039;-77
2022/06/19 03:49:02;;;;;;;;;;;;;;;14.22;75.41;100847.22;5012097;28;20012;-76
2022/06/19 03:51:27;;;;;;;;;;;;;;;13.98;76.41;100775.53;5010681;28;19991;-77
2022/06/19 03:53:53;;;;;;;;;;;;;;;13.74;77.04;100760.72;5009575;28;20066;-76
2022/06/19 03:56:21;;;;;;;;;;;;;;;13.62;78.95;100844.34;5013259;28;19964;-76
2022/06/19 03:58:47;;;;;;;;;;;;;;;13.53;79.58;100891.50;5015090;28;20012;-75
2022/06/19 04:01:16;;;;;;;;;;;;;;;13.50;80.01;100913.53;5019879;28;20008;-76
2022/06/19 04:03:41;;;;;;;;;;;;;;;13.36;80.50;100956.72;5009305;28;19930;-76
2022/06/19 04:06:07;;;;;;;;;;;;;;;13.31;80.93;100926.72;5014852;28;19936;-75
2022/06/19 04:08:32;;;;;;;;;;;;;;;13.27;81.17;100941.69;5012275;28;19989;-75
2022/06/19 04:10:58;;;;;;;;;;;;;;;13.25;81.44;100965.34;5012739;28;19937;-75
2022/06/19 04:13:23;;;;;;;;;;;;;;;13.27;81.69;100974.13;5007077;28;19926;-75
2022/06/19 04:15:48;;;;;;;;;;;;;;;13.31;81.98;100986.19;5008807;28;19921;-75
2022/06/19 04:18:13;;;;;;;;;;;;;;;13.30;82.38;100989.94;5007661;28;19925;-76
2022/06/19 04:20:39;;;;;;;;;;;;;;;13.30;82.37;101010.75;5015730;28;19932;-76
2022/06/19 04:23:06;;;;;;;;;;;;;;;13.34;82.29;101029.06;5010239;28;19925;-76
2022/06/19 04:25:31;;;;;;;;;;;;;;;13.37;82.16;101034.06;4999577;28;19925;-76
2022/06/19 04:27:56;;;;;;;;;;;;;;;13.49;82.73;101031.66;5009244;28;19995;-75
2022/06/19 04:30:21;;;;;;;;;;;;;;;13.57;83.11;101044.22;5008873;28;19941;-76
2022/06/19 04:32:47;;;;;;;;;;;;;;;13.66;82.81;101056.53;5008156;28;19928;-76
2022/06/19 04:35:12;;;;;;;;;;;;;;;13.74;82.78;101059.09;5023086;28;20024;-76
2022/06/19 04:37:37;;;;;;;;;;;;;;;13.80;82.73;101061.03;5022088;28;20064;-76
2022/06/19 04:40:04;;;;;;;;;;;;;;;13.87;82.00;101057.50;5014382;28;20343;-76
2022/06/19 04:42:30;;;;;;;;;;;;;;;13.92;82.06;101055.06;5024814;28;19964;-76
2022/06/19 04:44:55;;;;;;;;;;;;;;;13.96;81.64;101035.53;5009087;28;19929;-76
2022/06/19 04:47:20;;;;;;;;;;;;;;;13.99;81.32;101043.22;5008234;28;19921;-75
2022/06/19 04:49:45;;;;;;;;;;;;;;;14.01;81.51;101040.34;5012763;28;19932;-76
2022/06/19 04:52:10;;;;;;;;;;;;;;;14.02;81.65;101036.59;5018407;28;19932;-76
2022/06/19 04:54:36;;;;;;;;;;;;;;;13.98;81.32;101046.13;5007391;28;20373;-76
2022/06/19 04:57:01;;;;;;;;;;;;;;;13.93;81.76;101081.94;5019239;28;20404;-76
2022/06/19 04:59:27;;;;;;;;;;;;;;;13.96;81.81;101064.47;5023692;28;20407;-76
2022/06/19 05:01:52;;;;;;;;;;;;;;;14.03;81.67;101058.06;5025055;28;19948;-76
2022/06/19 05:04:17;;;;;;;;;;;;;;;14.08;81.99;101046.59;5027005;28;19925;-75
2022/06/19 05:06:42;;;;;;;;;;;;;;;14.08;81.22;101051.19;5028262;28;20064;-76
2022/06/19 05:09:08;;;;;;;;;;;;;;;14.08;81.95;101052.03;5028936;28;20007;-74
2022/06/19 05:11:33;;;;;;;;;;;;;;;14.08;81.83;101062.84;5004509;28;19932;-77
2022/06/19 05:13:58;;;;;;;;;;;;;;;14.10;81.53;101082.44;5007954;28;19967;-75
2022/06/19 05:16:24;;;;;;;;;;;;;;;14.15;81.19;101076.44;5008274;28;19925;-75
2022/06/19 05:18:50;;;;;;;;;;;;;;;14.10;80.91;101060.78;5008408;28;20373;-76
2022/06/19 05:21:15;;;;;;;;;;;;;;;14.19;81.26;101043.34;5027717;28;19991;-75
2022/06/19 05:23:43;;;;;;;;;;;;;;;14.21;81.68;101013.34;5012431;28;20440;-77
2022/06/19 05:26:14;;;;;;;;;;;;;;;14.17;81.90;100994.00;5011965;28;19947;-75
2022/06/19 05:28:39;;;;;;;;;;;;;;;14.18;82.03;100987.53;5013130;28;19929;-75
2022/06/19 05:31:04;;;;;;;;;;;;;;;14.19;82.16;101015.44;5010176;28;20377;-76
2022/06/19 05:33:30;;;;;;;;;;;;;;;14.18;81.94;101035.41;5008229;28;20436;-75
2022/06/19 05:35:55;;;;;;;;;;;;;;;14.21;81.99;101062.09;5008944;28;20341;-75
2022/06/19 05:38:20;;;;;;;;;;;;;;;14.26;81.70;101081.28;5008191;28;19992;-77
2022/06/19 05:40:46;;;;;;;;;;;;;;;14.28;81.47;101085.44;5017445;28;20526;-75
2022/06/19 05:43:11;;;;;;;;;;;;;;;14.33;81.45;101097.56;5008194;28;19927;-75
2022/06/19 05:45:36;;;;;;;;;;;;;;;14.36;81.52;101097.16;5008885;28;19921;-76
2022/06/19 05:48:02;;;;;;;;;;;;;;;14.32;80.50;101112.94;5007884;28;19918;-75
2022/06/19 05:50:27;;;;;;;;;;;;;;;14.38;80.87;101130.28;5017249;28;19932;-76
2022/06/19 05:52:53;;;;;;;;;;;;;;;14.39;81.01;101157.16;5011997;28;20260;-77
2022/06/19 05:55:18;;;;;;;;;;;;;;;14.38;80.66;101170.91;5024935;28;19932;-76
2022/06/19 05:57:43;;;;;;;;;;;;;;;14.36;80.89;101184.63;5031338;28;19921;-76
2022/06/19 06:00:08;;;;;;;;;;;;;;;14.37;81.01;101207.13;5016522;28;19922;-77
2022/06/19 06:02:34;;;;;;;;;;;;;;;14.39;81.19;101221.31;5011072;28;19927;-76
2022/06/19 06:05:00;;;;;;;;;;;;;;;14.44;79.98;101214.25;5012167;28;20015;-77
2022/06/19 06:07:25;;;;;;;;;;;;;;;14.45;79.97;101223.22;5011775;28;19961;-76
2022/06/19 06:09:50;;;;;;;;;;;;;;;14.44;80.45;101233.22;5018538;28;19921;-77
2022/06/19 06:12:15;;;;;;;;;;;;;;;14.42;80.19;101237.16;5031619;28;20011;-77
2022/06/19 06:14:41;;;;;;;;;;;;;;;14.49;80.16;101254.28;5016664;28;19971;-75
2022/06/19 06:17:06;;;;;;;;;;;;;;;14.49;80.07;101271.38;5011580;28;19925;-76
2022/06/19 06:19:31;;;;;;;;;;;;;;;14.48;80.43;101285.09;5013906;28;19917;-76
2022/06/19 06:21:57;;;;;;;;;;;;;;;14.50;80.75;101288.47;5024839;28;19926;-76
2022/06/19 06:24:22;;;;;;;;;;;;;;;14.54;80.76;101299.78;5026289;28;19917;-76
2022/06/19 06:26:47;;;;;;;;;;;;;;;14.48;80.05;101299.50;5032694;28;20361;-76
2022/06/19 06:29:12;;;;;;;;;;;;;;;14.56;80.58;101289.56;5017362;28;19967;-76
2022/06/19 06:31:38;;;;;;;;;;;;;;;14.51;80.33;101273.91;5014862;28;19925;-76
2022/06/19 06:34:03;;;;;;;;;;;;;;;14.50;80.34;101277.63;5014380;28;19929;-76
2022/06/19 06:36:29;;;;;;;;;;;;;;;14.51;80.58;101279.31;5016032;28;19927;-76
2022/06/19 06:38:54;;;;;;;;;;;;;;;14.56;81.12;101290.44;5013575;28;19948;-77
2022/06/19 06:41:19;;;;;;;;;;;;;;;14.53;79.55;101285.38;5013720;28;20016;-77
2022/06/19 06:43:45;;;;;;;;;;;;;;;14.46;79.74;101281.78;5029996;28;20281;-76
2022/06/19 06:46:15;;;;;;;;;;;;;;;14.48;80.69;101280.56;5021040;28;20297;-76
2022/06/19 06:48:40;;;;;;;;;;;;;;;14.49;80.91;101273.25;5020659;28;20292;-76
2022/06/19 06:51:06;;;;;;;;;;;;;;;14.47;80.48;101272.59;5030147;28;19964;-77
2022/06/19 06:53:31;;;;;;;;;;;;;;;14.43;80.76;101272.19;5013190;28;19937;-76
2022/06/19 06:55:56;;;;;;;;;;;;;;;14.44;81.50;101278.44;5035377;28;19925;-76
2022/06/19 06:58:22;;;;;;;;;;;;;;;14.44;81.53;101278.44;5029575;28;19921;-76
2022/06/19 07:00:47;;;;;;;;;;;;;;;14.45;81.28;101282.78;5015424;28;19925;-76
2022/06/19 07:03:12;;;;;;;;;;;;;;;14.48;81.53;101293.22;5014924;28;19933;-76
2022/06/19 07:05:37;;;;;;;;;;;;;;;14.49;81.55;101298.47;5014390;28;19925;-77
2022/06/19 07:08:03;;;;;;;;;;;;;;;14.52;81.72;101310.78;5013106;28;19921;-76
2022/06/19 07:10:28;;;;;;;;;;;;;;;14.52;81.17;101328.91;5023931;28;19932;-76
2022/06/19 07:12:53;;;;;;;;;;;;;;;14.56;80.25;101331.06;5019315;28;19922;-76
2022/06/19 07:15:18;;;;;;;;;;;;;;;14.48;80.05;101334.72;5019494;28;19929;-77
2022/06/19 07:17:44;;;;;;;;;;;;;;;14.50;80.37;101342.63;5029097;28;20368;-77
2022/06/19 07:20:09;;;;;;;;;;;;;;;14.47;80.20;101338.44;5013163;28;20020;-77
2022/06/19 07:22:34;;;;;;;;;;;;;;;14.51;80.49;101333.50;5019709;28;19921;-77
2022/06/19 07:25:00;;;;;;;;;;;;;;;14.52;80.68;101329.72;5016191;28;19922;-77
2022/06/19 07:27:26;;;;;;;;;;;;;;;14.56;80.79;101327.50;5019246;28;19921;-77
2022/06/19 07:29:51;;;;;;;;;;;;;;;14.61;81.37;101319.63;5015649;28;19929;-78
2022/06/19 07:32:16;;;;;;;;;;;;;;;14.61;81.83;101311.50;5015426;28;19918;-78
2022/06/19 07:34:42;;;;;;;;;;;;;;;14.59;82.32;101303.56;5029212;28;19928;-78
2022/06/19 07:37:08;;;;;;;;;;;;;;;14.55;82.62;101302.28;5015365;28;20292;-77
2022/06/19 07:39:34;;;;;;;;;;;;;;;14.51;82.93;101295.56;5013035;28;19926;-80
2022/06/19 07:41:59;;;;;;;;;;;;;;;14.46;83.53;101281.78;5029137;28;20292;-79
2022/06/19 07:44:25;;;;;;;;;;;;;;;14.45;84.05;101280.09;5013129;28;20011;-78
2022/06/19 07:52:18;;;;;;;;;;;;;;;14.50;84.44;101223.47;5012122;28;20249;-80
2022/06/19 07:54:43;;;;;;;;;;;;;;;14.49;85.07;101225.34;5024135;28;19921;-79
2022/06/19 07:57:08;;;;;;;;;;;;;;;14.49;85.14;101216.38;5033057;28;19928;-78
2022/06/19 07:59:33;;;;;;;;;;;;;;;14.50;84.78;101223.47;5031809;28;19917;-81
2022/06/19 08:01:59;;;;;;;;;;;;;;;14.52;84.57;101207.03;5013000;28;19968;-79
2022/06/19 08:04:24;;;;;;;;;;;;;;;14.47;83.85;101207.63;5021789;28;19939;-80
2022/06/19 08:06:49;;;;;;;;;;;;;;;14.51;84.04;101219.72;5022874;28;19929;-78
2022/06/19 08:09:14;;;;;;;;;;;;;;;14.50;83.62;101221.59;5032699;28;19968;-80
2022/06/19 08:11:40;;;;;;;;;;;;;;;14.58;84.13;101223.34;5031324;28;20383;-79
2022/06/19 08:14:05;;;;;;;;;;;;;;;14.55;83.72;101221.03;5032628;28;19964;-79
2022/06/19 08:16:30;;;;;;;;;;;;;;;14.64;83.06;101210.84;5032665;28;20213;-80
2022/06/19 08:18:55;;;;;;;;;;;;;;;14.68;82.58;101218.41;5032280;28;19917;-78
2022/06/19 08:21:21;;;;;;;;;;;;;;;14.72;82.37;101226.97;5032643;28;20004;-79
2022/06/19 08:23:46;;;;;;;;;;;;;;;14.73;81.56;101219.69;5033135;28;20070;-79
2022/06/19 08:26:11;;;;;;;;;;;;;;;14.76;81.30;101219.28;5031803;28;19917;-79
2022/06/19 08:31:08;;;;;;;;;;;;;;;14.79;81.05;101219.69;5032081;28;19921;-79
2022/06/19 08:33:33;;;;;;;;;;;;;;;14.82;80.96;101216.59;5031849;28;19966;-79
2022/06/19 08:36:00;;;;;;;;;;;;;;;14.87;80.64;101202.44;5031591;28;19924;-79
2022/06/19 08:38:28;;;;;;;;;;;;;;;14.91;81.03;101199.13;5031901;28;20440;-79
2022/06/19 08:41:05;;;;;;;;;;;;;;;14.93;80.55;101190.81;5031812;28;19928;-79
2022/06/19 08:43:49;;;;;;;;;;;;;;;14.93;79.75;101191.66;5030497;28;20384;-80
2022/06/19 08:46:32;;;;;;;;;;;;;;;14.92;79.70;101202.66;5031423;28;19917;-80
2022/06/19 08:49:01;;;;;;;;;;;;;;;14.82;79.56;101210.34;5031583;28;19975;-79
2022/06/19 08:51:44;;;;;;;;;;;;;;;14.77;79.73;101231.78;5030031;28;19917;-79
2022/06/19 08:54:13;;;;;;;;;;;;;;;14.84;80.14;101225.34;5031156;28;19917;-78
2022/06/19 08:56:41;;;;;;;;;;;;;;;14.82;79.25;101221.16;5031553;28;19957;-79
2022/06/19 08:59:16;;;;;;;;;;;;;;;14.87;79.65;101221.41;5029963;28;20289;-79
2022/06/19 09:01:43;;;;;;;;;;;;;;;14.88;80.07;101214.97;5031241;28;19956;-80
2022/06/19 09:07:04;;;;;;;;;;;;;;;15.00;79.29;101221.47;5030343;28;20375;-80
2022/06/19 09:09:49;;;;;;;;;;;;;;;15.01;78.93;101208.75;5031439;28;19917;-79
2022/06/19 09:12:33;;;;;;;;;;;;;;;15.00;78.42;101188.94;5019815;28;19953;-79
2022/06/19 09:15:12;;;;;;;;;;;;;;;15.04;78.12;101171.25;5031604;28;19924;-79
2022/06/19 09:17:57;;;;;;;;;;;;;;;15.10;77.57;101167.72;5031456;28;20059;-79
2022/06/19 09:20:30;;;;;;;;;;;;;;;15.12;76.97;101168.34;5031122;28;19976;-80
2022/06/19 09:23:34;;;;;;;;;;;;;;;15.23;76.71;101160.66;5030070;28;20430;-79
2022/06/19 09:26:07;;;;;;;;;;;;;;;15.34;76.17;101154.63;5008658;28;20335;-79
2022/06/19 09:28:51;;;;;;;;;;;;;;;15.42;74.40;101178.84;4993070;28;19917;-79
2022/06/19 09:31:29;;;;;;;;;;;;;;;15.47;72.61;101189.91;5023221;28;20365;-80
2022/06/19 09:33:58;;;;;;;;;;;;;;;15.40;71.49;101183.63;5031625;28;19921;-78
2022/06/19 09:36:25;;;;;;;;;;;;;;;15.41;72.05;101181.78;5029773;28;20448;-79
2022/06/19 09:38:56;;;;;;;;;;;;;;;15.52;72.41;101187.41;5030145;28;20487;-79
2022/06/19 09:41:42;;;;;;;;;;;;;;;15.66;72.45;101185.56;5031118;28;19971;-80
2022/06/19 09:44:10;;;;;;;;;;;;;;;15.73;71.85;101172.03;5027211;28;20229;-79
2022/06/19 09:46:39;;;;;;;;;;;;;;;15.91;70.70;101166.81;5034343;28;20373;-79
2022/06/19 09:49:10;;;;;;;;;;;;;;;16.20;70.46;101153.84;5032609;28;20053;-79
2022/06/19 09:51:41;;;;;;;;;;;;;;;16.46;68.39;101166.53;5030493;28;20573;-80
2022/06/19 09:54:11;;;;;;;;;;;;;;;16.58;67.10;101170.25;5030055;28;19924;-80
2022/06/19 09:56:50;;;;;;;;;;;;;;;16.84;66.95;101187.56;5032502;28;19932;-79
2022/06/19 09:59:20;;;;;;;;;;;;;;;16.84;65.03;101198.44;5030536;28;19917;-81
2022/06/19 10:01:46;;;;;;;;;;;;;;;16.70;66.00;101213.09;5029591;28;19917;-76
2022/06/19 10:04:14;;;;;;;;;;;;;;;16.62;66.69;101212.28;5029895;28;19917;-79
2022/06/19 10:06:41;;;;;;;;;;;;;;;16.63;66.71;101191.34;5031070;28;19921;-77
2022/06/19 10:09:41;;;;;;;;;;;;;;;16.81;66.76;101172.50;5027392;28;20057;-86
2022/06/19 10:12:08;;;;;;;;;;;;;;;17.39;64.84;101189.81;5001780;28;19929;-84
2022/06/19 10:14:33;;;;;;;;;;;;;;;17.51;62.52;101198.94;5007038;28;20278;-78
2022/06/19 10:17:02;;;;;;;;;;;;;;;17.49;62.97;101222.81;5030966;28;19924;-77
2022/06/19 10:19:42;;;;;;;;;;;;;;;17.35;62.67;101230.19;5026037;28;19921;-79
2022/06/19 10:22:13;;;;;;;;;;;;;;;17.34;63.52;101237.53;5030098;28;19921;-79
2022/06/19 10:24:38;;;;;;;;;;;;;;;17.30;62.82;101251.81;5029445;28;19921;-78
2022/06/19 10:27:07;;;;;;;;;;;;;;;17.34;62.65;101244.88;5030312;28;19932;-79
2022/06/19 10:29:42;;;;;;;;;;;;;;;17.31;62.64;101248.84;5028389;28;20385;-78
2022/06/19 10:32:10;;;;;;;;;;;;;;;17.27;62.70;101236.75;5028390;28;20012;-78
2022/06/19 10:34:35;;;;;;;;;;;;;;;17.14;62.68;101234.09;5030773;28;19921;-76
2022/06/19 10:37:16;;;;;;;;;;;;;;;17.26;63.42;101223.34;5015983;28;19927;-76
2022/06/19 10:40:02;;;;;;;;;;;;;;;17.49;63.09;101201.06;4997113;28;19968;-74
2022/06/19 10:42:48;;;;;;;;;;;;;;;17.72;61.10;101195.00;5014912;28;19988;-76
2022/06/19 10:45:22;;;;;;;;;;;;;;;17.92;60.51;101200.34;5013690;28;19967;-76
2022/06/19 10:47:58;;;;;;;;;;;;;;;18.43;59.94;101202.81;5028408;28;19929;-73
2022/06/19 10:50:32;;;;;;;;;;;;;;;18.72;57.83;101205.88;5025414;28;19933;-76
2022/06/19 10:53:10;;;;;;;;;;;;;;;18.88;57.92;101182.63;5019310;28;19957;-75
2022/06/19 10:55:44;;;;;;;;;;;;;;;19.29;57.06;101187.31;5017265;28;19921;-76
2022/06/19 10:58:20;;;;;;;;;;;;;;;19.99;54.56;101183.16;5033902;28;20431;-76
2022/06/19 11:00:46;;;;;;;;;;;;;;;20.21;52.93;101190.75;5025943;28;20277;-76
2022/06/19 11:06:15;;;;;;;;;;;;;;;20.73;51.93;101185.38;5034301;28;19948;-76
2022/06/19 11:08:42;;;;;;;;;;;;;;;20.84;52.67;101200.94;5035362;28;19921;-76
2022/06/19 11:11:09;;;;;;;;;;;;;;;21.03;50.71;101207.06;5035518;28;20463;-76
2022/06/19 11:13:53;;;;;;;;;;;;;;;21.05;50.41;101199.44;5018166;28;20253;-75
2022/06/19 11:16:18;;;;;;;;;;;;;;;21.03;49.83;101210.63;5017476;28;19922;-75
2022/06/19 11:18:45;;;;;;;;;;;;;;;20.60;51.07;101211.09;5022460;28;20035;-74
2022/06/19 11:21:14;;;;;;;;;;;;;;;20.59;51.36;101199.31;5031943;28;19924;-75
2022/06/19 11:23:48;;;;;;;;;;;;;;;20.60;50.83;101200.97;5024009;28;19947;-75
2022/06/19 11:26:14;;;;;;;;;;;;;;;20.48;50.96;101221.16;5020325;28;19921;-75
2022/06/19 11:28:50;;;;;;;;;;;;;;;20.36;51.73;101238.41;5015437;28;19932;-75
2022/06/19 11:31:24;;;;;;;;;;;;;;;20.27;53.04;101261.69;5015450;28;19928;-74
2022/06/19 11:33:54;;;;;;;;;;;;;;;20.38;53.22;101285.47;5032196;28;19944;-74
2022/06/19 11:36:24;;;;;;;;;;;;;;;20.19;52.55;101289.34;5011667;28;20304;-75
2022/06/19 11:38:50;;;;;;;;;;;;;;;20.09;53.36;101302.75;5012592;28;19953;-76
2022/06/19 11:41:16;;;;;;;;;;;;;;;20.05;53.74;101315.25;5011882;28;20381;-75
2022/06/19 11:43:42;;;;;;;;;;;;;;;19.98;53.86;101328.16;5012343;28;19921;-76
2022/06/19 11:46:15;;;;;;;;;;;;;;;19.67;53.99;101338.28;5010951;28;19947;-75
2022/06/19 11:48:40;;;;;;;;;;;;;;;19.53;54.29;101341.13;5009652;28;19964;-76
2022/06/19 11:51:14;;;;;;;;;;;;;;;19.50;54.65;101343.47;5025626;28;19921;-75
2022/06/19 11:53:40;;;;;;;;;;;;;;;19.43;54.28;101353.63;5012432;28;19924;-75
2022/06/19 11:56:13;;;;;;;;;;;;;;;19.49;54.44;101374.59;5012360;28;20080;-74
2022/06/19 11:58:39;;;;;;;;;;;;;;;19.60;54.12;101364.78;5010240;28;19922;-75
2022/06/19 12:01:15;;;;;;;;;;;;;;;20.16;52.45;101358.97;5010116;28;20051;-75
2022/06/19 12:03:40;;;;;;;;;;;;;;;20.78;51.03;101380.53;5010631;28;20365;-74
2022/06/19 12:06:06;;;;;;;;;;;;;;;21.34;49.41;101377.44;5012456;28;20011;-75
2022/06/19 12:08:33;;;;;;;;;;;;;;;21.56;49.38;101386.69;5012156;28;19922;-75
2022/06/19 12:11:02;;;;;;;;;;;;;;;21.50;48.58;101382.19;5018284;28;19988;-75
2022/06/19 12:13:32;;;;;;;;;;;;;;;21.79;48.03;101396.75;4991054;28;20348;-75
2022/06/19 12:16:18;;;;;;;;;;;;;;;22.26;48.18;101382.88;5017407;28;20169;-74
2022/06/19 12:18:43;;;;;;;;;;;;;;;22.78;45.75;101381.84;5013887;28;20015;-75
2022/06/19 12:21:25;;;;;;;;;;;;;;;23.09;44.39;101379.56;5027281;28;20389;-74
2022/06/19 12:24:26;;;;;;;;;;;;;;;23.14;44.89;101376.88;5026160;28;19928;-76
2022/06/19 12:26:52;;;;;;;;;;;;;;;23.45;43.93;101387.22;4940503;29;19922;-76
2022/06/19 12:29:36;;;;;;;;;;;;;;;23.44;43.22;101385.56;4999543;28;20340;-75
2022/06/19 12:32:06;;;;;;;;;;;;;;;23.00;44.14;101392.91;5010456;28;19921;-77
2022/06/19 12:34:36;;;;;;;;;;;;;;;22.98;44.72;101401.38;5020312;28;19949;-76
2022/06/19 12:37:01;;;;;;;;;;;;;;;23.10;44.62;101394.97;5011650;28;20404;-76
2022/06/19 12:39:29;;;;;;;;;;;;;;;23.31;43.86;101387.84;5015668;28;19925;-76
2022/06/19 12:42:00;;;;;;;;;;;;;;;22.97;43.09;101383.25;5016472;28;19921;-76
2022/06/19 12:44:29;;;;;;;;;;;;;;;22.47;44.17;101389.56;5030998;28;20292;-76
2022/06/19 12:47:06;;;;;;;;;;;;;;;21.82;46.42;101392.69;5029758;28;19921;-76
2022/06/19 12:49:44;;;;;;;;;;;;;;;21.52;47.01;101404.69;5029774;28;19936;-78
2022/06/19 12:52:14;;;;;;;;;;;;;;;21.32;47.32;101410.50;5016359;28;19921;-76
2022/06/19 12:54:47;;;;;;;;;;;;;;;21.00;48.44;101408.13;5011531;28;19928;-76